JAL920 ROAH-RJTT
Flight info
| Callsign | JAL920 |
|---|---|
| Flight time | 1h 56m |
| Altitude | 41000 |
| Route | AMAMI Y574 SHIBK Y57 SUKBO Y571 BILLY Y21 AKSEL |
| Aircraft | A359/H-SDE2E3GHIJ3J4J5LM1ORWXY/LB1D1 |
Departure
| Time | 2026-04-18 03:57 |
|---|---|
| Airport | Naha International Airport (ROAH) |
Arrival
| Time | 2026-04-18 05:54 |
|---|---|
| Airport | Tokyo Haneda International Airport (RJTT) |
| Time | Latitude | Longitude | Altitude | Speed | Heading |
|---|---|---|---|---|---|
| 2026-04-18 03:33 | 26.20565 | 127.64926 | 27 ft | 0 kts | 148° |
| 2026-04-18 03:45 | 26.20573 | 127.64920 | 27 ft | 3 kts | 148° |
| 2026-04-18 03:45 | 26.20588 | 127.64909 | 27 ft | 3 kts | 152° |
| 2026-04-18 03:46 | 26.20604 | 127.64902 | 26 ft | 3 kts | 175° |
| 2026-04-18 03:46 | 26.20618 | 127.64901 | 25 ft | 3 kts | 208° |
| 2026-04-18 03:46 | 26.20629 | 127.64909 | 25 ft | 3 kts | 241° |
| 2026-04-18 03:46 | 26.20635 | 127.64927 | 24 ft | 3 kts | 263° |
| 2026-04-18 03:47 | 26.20637 | 127.64940 | 24 ft | 2 kts | 268° |
| 2026-04-18 03:47 | 26.20637 | 127.64961 | 26 ft | 3 kts | 267° |
| 2026-04-18 03:47 | 26.20638 | 127.64972 | 26 ft | 0 kts | 267° |
| 2026-04-18 03:51 | 26.20638 | 127.64968 | 25 ft | 2 kts | 267° |
| 2026-04-18 03:51 | 26.20637 | 127.64947 | 25 ft | 4 kts | 268° |
| 2026-04-18 03:51 | 26.20635 | 127.64898 | 26 ft | 8 kts | 267° |
| 2026-04-18 03:51 | 26.20632 | 127.64825 | 26 ft | 9 kts | 268° |
| 2026-04-18 03:52 | 26.20598 | 127.64754 | 25 ft | 12 kts | 206° |
| 2026-04-18 03:52 | 26.20507 | 127.64750 | 26 ft | 14 kts | 178° |
| 2026-04-18 03:52 | 26.20402 | 127.64755 | 27 ft | 16 kts | 177° |
| 2026-04-18 03:52 | 26.20283 | 127.64762 | 26 ft | 19 kts | 177° |
| 2026-04-18 03:53 | 26.20148 | 127.64768 | 26 ft | 21 kts | 178° |
| 2026-04-18 03:53 | 26.19995 | 127.64775 | 27 ft | 23 kts | 178° |
| 2026-04-18 03:53 | 26.19847 | 127.64782 | 26 ft | 20 kts | 178° |
| 2026-04-18 03:53 | 26.19700 | 127.64788 | 26 ft | 22 kts | 178° |
| 2026-04-18 03:54 | 26.19540 | 127.64796 | 26 ft | 21 kts | 177° |
| 2026-04-18 03:54 | 26.19386 | 127.64804 | 26 ft | 23 kts | 178° |
| 2026-04-18 03:54 | 26.19218 | 127.64811 | 26 ft | 25 kts | 177° |
| 2026-04-18 03:54 | 26.19040 | 127.64820 | 26 ft | 24 kts | 177° |
| 2026-04-18 03:55 | 26.18913 | 127.64826 | 26 ft | 8 kts | 178° |
| 2026-04-18 03:55 | 26.18857 | 127.64828 | 26 ft | 9 kts | 179° |
| 2026-04-18 03:55 | 26.18804 | 127.64796 | 25 ft | 9 kts | 239° |
| 2026-04-18 03:55 | 26.18797 | 127.64724 | 23 ft | 9 kts | 270° |
| 2026-04-18 03:56 | 26.18796 | 127.64661 | 25 ft | 8 kts | 271° |
| 2026-04-18 03:56 | 26.18828 | 127.64624 | 28 ft | 7 kts | 343° |
| 2026-04-18 03:56 | 26.18863 | 127.64621 | 27 ft | 6 kts | 357° |
| 2026-04-18 03:56 | 26.18964 | 127.64617 | 28 ft | 38 kts | 358° |
| 2026-04-18 03:57 | 26.20491 | 127.64549 | 103 ft | 166 kts | 358° |
| 2026-04-18 03:57 | 26.21602 | 127.64517 | 1009 ft | 153 kts | 356° |
| 2026-04-18 03:57 | 26.22663 | 127.64474 | 1642 ft | 156 kts | 354° |
| 2026-04-18 03:58 | 26.23817 | 127.64414 | 1827 ft | 177 kts | 354° |
| 2026-04-18 03:58 | 26.25106 | 127.64174 | 1998 ft | 199 kts | 338° |
| 2026-04-18 03:58 | 26.26504 | 127.63640 | 2091 ft | 228 kts | 351° |
| 2026-04-18 03:58 | 26.28160 | 127.63761 | 2357 ft | 250 kts | 8° |
| 2026-04-18 03:59 | 26.29915 | 127.64137 | 2853 ft | 262 kts | 9° |
| 2026-04-18 03:59 | 26.31727 | 127.64555 | 3473 ft | 267 kts | 9° |
| 2026-04-18 03:59 | 26.33555 | 127.64987 | 4093 ft | 270 kts | 9° |
| 2026-04-18 03:59 | 26.35406 | 127.65404 | 4687 ft | 273 kts | 9° |
| 2026-04-18 04:00 | 26.37278 | 127.65839 | 5255 ft | 277 kts | 9° |
| 2026-04-18 04:00 | 26.39176 | 127.66277 | 5866 ft | 280 kts | 8° |
| 2026-04-18 04:00 | 26.41092 | 127.66710 | 6483 ft | 282 kts | 8° |
| 2026-04-18 04:00 | 26.43022 | 127.67145 | 7083 ft | 284 kts | 7° |
| 2026-04-18 04:01 | 26.44968 | 127.67578 | 7662 ft | 287 kts | 7° |
| 2026-04-18 04:01 | 26.46937 | 127.68019 | 8256 ft | 290 kts | 7° |
| 2026-04-18 04:01 | 26.48929 | 127.68468 | 8851 ft | 293 kts | 7° |
| 2026-04-18 04:01 | 26.50912 | 127.68912 | 9452 ft | 296 kts | 7° |
| 2026-04-18 04:02 | 26.52942 | 127.69368 | 10052 ft | 299 kts | 7° |
| 2026-04-18 04:02 | 26.55021 | 127.69833 | 10387 ft | 312 kts | 7° |
| 2026-04-18 04:02 | 26.57200 | 127.70319 | 10610 ft | 327 kts | 7° |
| 2026-04-18 04:02 | 26.59480 | 127.70829 | 10809 ft | 340 kts | 7° |
| 2026-04-18 04:03 | 26.61852 | 127.71394 | 11016 ft | 355 kts | 11° |
| 2026-04-18 04:03 | 26.64168 | 127.72454 | 11359 ft | 367 kts | 27° |
| 2026-04-18 04:03 | 26.66191 | 127.74234 | 11791 ft | 374 kts | 40° |
| 2026-04-18 04:03 | 26.68003 | 127.76349 | 12238 ft | 379 kts | 46° |
| 2026-04-18 04:04 | 26.69694 | 127.78633 | 12661 ft | 383 kts | 49° |
| 2026-04-18 04:04 | 26.71334 | 127.80995 | 13105 ft | 387 kts | 50° |
| 2026-04-18 04:04 | 26.72954 | 127.83363 | 13536 ft | 389 kts | 50° |
| 2026-04-18 04:04 | 26.74637 | 127.85796 | 13936 ft | 392 kts | 50° |
| 2026-04-18 04:05 | 26.76302 | 127.88166 | 14306 ft | 394 kts | 49° |
| 2026-04-18 04:05 | 26.78014 | 127.90571 | 14694 ft | 396 kts | 49° |
| 2026-04-18 04:05 | 26.79744 | 127.92980 | 15070 ft | 399 kts | 49° |
| 2026-04-18 04:05 | 26.81501 | 127.95415 | 15447 ft | 402 kts | 49° |
| 2026-04-18 04:06 | 26.83266 | 127.97858 | 15862 ft | 404 kts | 49° |
| 2026-04-18 04:06 | 26.85040 | 128.00315 | 16240 ft | 407 kts | 49° |
| 2026-04-18 04:06 | 26.86828 | 128.02793 | 16623 ft | 410 kts | 49° |
| 2026-04-18 04:06 | 26.88621 | 128.05281 | 16985 ft | 413 kts | 49° |
| 2026-04-18 04:07 | 26.90431 | 128.07795 | 17339 ft | 416 kts | 49° |
| 2026-04-18 04:07 | 26.92252 | 128.10329 | 17730 ft | 418 kts | 49° |
| 2026-04-18 04:07 | 26.94084 | 128.12878 | 18113 ft | 421 kts | 49° |
| 2026-04-18 04:07 | 26.95921 | 128.15434 | 18444 ft | 423 kts | 49° |
| 2026-04-18 04:08 | 26.97744 | 128.17978 | 18755 ft | 425 kts | 49° |
| 2026-04-18 04:08 | 26.99600 | 128.20566 | 19070 ft | 427 kts | 49° |
| 2026-04-18 04:08 | 27.01464 | 128.23166 | 19391 ft | 429 kts | 49° |
| 2026-04-18 04:08 | 27.03346 | 128.25789 | 19714 ft | 432 kts | 49° |
| 2026-04-18 04:09 | 27.05232 | 128.28417 | 20046 ft | 433 kts | 49° |
| 2026-04-18 04:09 | 27.07127 | 128.31063 | 20357 ft | 436 kts | 49° |
| 2026-04-18 04:09 | 27.09031 | 128.33725 | 20679 ft | 438 kts | 49° |
| 2026-04-18 04:09 | 27.10947 | 128.36404 | 20980 ft | 440 kts | 50° |
| 2026-04-18 04:10 | 27.12869 | 128.39095 | 21283 ft | 442 kts | 49° |
| 2026-04-18 04:10 | 27.14797 | 128.41793 | 21577 ft | 445 kts | 50° |
| 2026-04-18 04:10 | 27.16733 | 128.44506 | 21846 ft | 447 kts | 50° |
| 2026-04-18 04:10 | 27.18683 | 128.47243 | 22148 ft | 449 kts | 50° |
| 2026-04-18 04:11 | 27.20638 | 128.49988 | 22433 ft | 451 kts | 50° |
| 2026-04-18 04:11 | 27.22601 | 128.52745 | 22714 ft | 453 kts | 50° |
| 2026-04-18 04:11 | 27.24574 | 128.55517 | 22991 ft | 455 kts | 50° |
| 2026-04-18 04:11 | 27.26562 | 128.58312 | 23245 ft | 458 kts | 50° |
| 2026-04-18 04:12 | 27.28527 | 128.61074 | 23509 ft | 460 kts | 50° |
| 2026-04-18 04:12 | 27.30532 | 128.63891 | 23733 ft | 462 kts | 50° |
| 2026-04-18 04:12 | 27.32543 | 128.66721 | 23942 ft | 464 kts | 50° |
| 2026-04-18 04:12 | 27.34562 | 128.69566 | 24160 ft | 466 kts | 50° |
| 2026-04-18 04:13 | 27.36589 | 128.72426 | 24371 ft | 469 kts | 50° |
| 2026-04-18 04:13 | 27.38629 | 128.75307 | 24590 ft | 471 kts | 50° |
| 2026-04-18 04:13 | 27.40670 | 128.78189 | 24803 ft | 472 kts | 50° |
| 2026-04-18 04:13 | 27.42723 | 128.81090 | 25004 ft | 474 kts | 50° |
| 2026-04-18 04:14 | 27.44783 | 128.84002 | 25219 ft | 477 kts | 50° |
| 2026-04-18 04:14 | 27.46855 | 128.86932 | 25441 ft | 479 kts | 50° |
| 2026-04-18 04:14 | 27.48935 | 128.89876 | 25659 ft | 481 kts | 49° |
| 2026-04-18 04:14 | 27.51025 | 128.92835 | 25854 ft | 483 kts | 50° |
| 2026-04-18 04:15 | 27.53120 | 128.95805 | 26078 ft | 485 kts | 50° |
| 2026-04-18 04:15 | 27.55220 | 128.98786 | 26315 ft | 487 kts | 49° |
| 2026-04-18 04:15 | 27.57332 | 129.01787 | 26525 ft | 489 kts | 50° |
| 2026-04-18 04:15 | 27.59451 | 129.04799 | 26744 ft | 491 kts | 50° |
| 2026-04-18 04:16 | 27.61577 | 129.07825 | 26977 ft | 493 kts | 49° |
| 2026-04-18 04:16 | 27.63708 | 129.10857 | 27194 ft | 495 kts | 50° |
| 2026-04-18 04:16 | 27.65854 | 129.13913 | 27412 ft | 498 kts | 49° |
| 2026-04-18 04:16 | 27.68016 | 129.16988 | 27639 ft | 499 kts | 49° |
| 2026-04-18 04:17 | 27.70178 | 129.20070 | 27843 ft | 502 kts | 49° |
| 2026-04-18 04:17 | 27.72346 | 129.23163 | 28095 ft | 504 kts | 50° |
| 2026-04-18 04:17 | 27.74500 | 129.26241 | 28330 ft | 507 kts | 50° |
| 2026-04-18 04:17 | 27.76686 | 129.29368 | 28553 ft | 509 kts | 50° |
| 2026-04-18 04:18 | 27.78885 | 129.32514 | 28799 ft | 511 kts | 50° |
| 2026-04-18 04:18 | 27.81093 | 129.35671 | 29028 ft | 513 kts | 50° |
| 2026-04-18 04:18 | 27.83315 | 129.38847 | 29259 ft | 516 kts | 50° |
| 2026-04-18 04:18 | 27.85543 | 129.42040 | 29490 ft | 518 kts | 50° |
| 2026-04-18 04:19 | 27.87781 | 129.45248 | 29717 ft | 521 kts | 50° |
| 2026-04-18 04:19 | 27.90029 | 129.48474 | 29991 ft | 523 kts | 50° |
| 2026-04-18 04:19 | 27.92288 | 129.51715 | 30231 ft | 525 kts | 50° |
| 2026-04-18 04:19 | 27.94558 | 129.54977 | 30470 ft | 527 kts | 50° |
| 2026-04-18 04:20 | 27.96828 | 129.58243 | 30699 ft | 529 kts | 50° |
| 2026-04-18 04:20 | 27.99107 | 129.61524 | 30934 ft | 532 kts | 50° |
| 2026-04-18 04:20 | 28.01397 | 129.64823 | 31179 ft | 533 kts | 50° |
| 2026-04-18 04:20 | 28.03694 | 129.68134 | 31387 ft | 536 kts | 50° |
| 2026-04-18 04:21 | 28.05997 | 129.71456 | 31607 ft | 538 kts | 50° |
| 2026-04-18 04:21 | 28.08282 | 129.74756 | 31848 ft | 540 kts | 50° |
| 2026-04-18 04:21 | 28.10602 | 129.78108 | 32057 ft | 542 kts | 50° |
| 2026-04-18 04:21 | 28.12934 | 129.81479 | 32263 ft | 544 kts | 50° |
| 2026-04-18 04:22 | 28.15269 | 129.84859 | 32470 ft | 546 kts | 50° |
| 2026-04-18 04:22 | 28.17608 | 129.88249 | 32687 ft | 547 kts | 50° |
| 2026-04-18 04:22 | 28.19960 | 129.91656 | 32894 ft | 549 kts | 50° |
| 2026-04-18 04:22 | 28.22315 | 129.95071 | 33080 ft | 551 kts | 50° |
| 2026-04-18 04:23 | 28.24680 | 129.98504 | 33266 ft | 552 kts | 50° |
| 2026-04-18 04:23 | 28.27046 | 130.01943 | 33460 ft | 554 kts | 50° |
| 2026-04-18 04:23 | 28.29422 | 130.05398 | 33654 ft | 556 kts | 50° |
| 2026-04-18 04:23 | 28.31804 | 130.08864 | 33846 ft | 557 kts | 50° |
| 2026-04-18 04:24 | 28.33384 | 130.11164 | 33970 ft | 559 kts | 50° |
| 2026-04-18 04:24 | 28.35781 | 130.14655 | 34157 ft | 560 kts | 50° |
| 2026-04-18 04:24 | 28.38951 | 130.19281 | 34480 ft | 560 kts | 50° |
| 2026-04-18 04:24 | 28.41336 | 130.22766 | 34724 ft | 560 kts | 50° |
| 2026-04-18 04:25 | 28.43729 | 130.26263 | 34980 ft | 559 kts | 50° |
| 2026-04-18 04:25 | 28.46113 | 130.29750 | 35236 ft | 559 kts | 50° |
| 2026-04-18 04:25 | 28.47728 | 130.32113 | 35400 ft | 559 kts | 50° |
| 2026-04-18 04:25 | 28.50110 | 130.35605 | 35629 ft | 559 kts | 50° |
| 2026-04-18 04:26 | 28.52497 | 130.39106 | 35872 ft | 559 kts | 50° |
| 2026-04-18 04:26 | 28.54874 | 130.42595 | 36150 ft | 559 kts | 50° |
| 2026-04-18 04:26 | 28.57226 | 130.46048 | 36400 ft | 559 kts | 50° |
| 2026-04-18 04:26 | 28.59610 | 130.49547 | 36651 ft | 559 kts | 50° |
| 2026-04-18 04:27 | 28.61995 | 130.53049 | 36902 ft | 559 kts | 50° |
| 2026-04-18 04:27 | 28.64369 | 130.56545 | 37179 ft | 558 kts | 50° |
| 2026-04-18 04:27 | 28.66748 | 130.60047 | 37425 ft | 558 kts | 50° |
| 2026-04-18 04:27 | 28.69122 | 130.63553 | 37658 ft | 558 kts | 50° |
| 2026-04-18 04:28 | 28.71497 | 130.67060 | 37873 ft | 559 kts | 50° |
| 2026-04-18 04:28 | 28.73866 | 130.70560 | 38159 ft | 558 kts | 50° |
| 2026-04-18 04:28 | 28.76236 | 130.74061 | 38426 ft | 558 kts | 50° |
| 2026-04-18 04:28 | 28.78607 | 130.77563 | 38663 ft | 558 kts | 50° |
| 2026-04-18 04:29 | 28.80979 | 130.81075 | 38877 ft | 558 kts | 50° |
| 2026-04-18 04:29 | 28.83347 | 130.84584 | 39091 ft | 558 kts | 50° |
| 2026-04-18 04:29 | 28.85717 | 130.88100 | 39296 ft | 557 kts | 50° |
| 2026-04-18 04:29 | 28.88047 | 130.91559 | 39501 ft | 557 kts | 50° |
| 2026-04-18 04:30 | 28.90407 | 130.95067 | 39716 ft | 557 kts | 50° |
| 2026-04-18 04:30 | 28.92766 | 130.98574 | 39907 ft | 556 kts | 50° |
| 2026-04-18 04:30 | 28.95119 | 131.02074 | 40116 ft | 556 kts | 50° |
| 2026-04-18 04:30 | 28.97477 | 131.05586 | 40287 ft | 556 kts | 50° |
| 2026-04-18 04:31 | 28.99831 | 131.09095 | 40475 ft | 556 kts | 50° |
| 2026-04-18 04:31 | 29.02183 | 131.12603 | 40665 ft | 556 kts | 50° |
| 2026-04-18 04:31 | 29.04535 | 131.16114 | 40838 ft | 556 kts | 50° |
| 2026-04-18 04:31 | 29.06882 | 131.19622 | 40968 ft | 557 kts | 50° |
| 2026-04-18 04:32 | 29.09241 | 131.23150 | 40986 ft | 557 kts | 50° |
| 2026-04-18 04:32 | 29.13944 | 131.30191 | 40982 ft | 557 kts | 50° |
| 2026-04-18 04:33 | 29.18646 | 131.37244 | 40983 ft | 557 kts | 50° |
| 2026-04-18 04:33 | 29.23343 | 131.44302 | 40987 ft | 557 kts | 50° |
| 2026-04-18 04:34 | 29.28011 | 131.51327 | 40986 ft | 558 kts | 50° |
| 2026-04-18 04:34 | 29.32707 | 131.58407 | 40990 ft | 558 kts | 50° |
| 2026-04-18 04:35 | 29.37397 | 131.65490 | 40993 ft | 558 kts | 50° |
| 2026-04-18 04:35 | 29.42095 | 131.72597 | 40999 ft | 559 kts | 50° |
| 2026-04-18 04:36 | 29.46788 | 131.79709 | 40988 ft | 559 kts | 50° |
| 2026-04-18 04:36 | 29.51481 | 131.86834 | 40985 ft | 559 kts | 50° |
| 2026-04-18 04:37 | 29.56145 | 131.93927 | 41003 ft | 559 kts | 50° |
| 2026-04-18 04:37 | 29.60832 | 132.01067 | 41007 ft | 559 kts | 50° |
| 2026-04-18 04:38 | 29.65511 | 132.08207 | 40993 ft | 559 kts | 50° |
| 2026-04-18 04:38 | 29.70330 | 132.15203 | 41005 ft | 557 kts | 47° |
| 2026-04-18 04:39 | 29.75310 | 132.22049 | 41006 ft | 558 kts | 47° |
| 2026-04-18 04:39 | 29.80277 | 132.28922 | 41006 ft | 558 kts | 47° |
| 2026-04-18 04:40 | 29.85172 | 132.35786 | 41004 ft | 558 kts | 47° |
| 2026-04-18 04:40 | 29.90082 | 132.42713 | 41007 ft | 558 kts | 47° |
| 2026-04-18 04:41 | 29.94994 | 132.49658 | 41009 ft | 559 kts | 47° |
| 2026-04-18 04:41 | 29.99905 | 132.56609 | 41008 ft | 559 kts | 47° |
| 2026-04-18 04:42 | 30.04819 | 132.63574 | 41011 ft | 559 kts | 47° |
| 2026-04-18 04:42 | 30.09723 | 132.70537 | 41015 ft | 559 kts | 47° |
| 2026-04-18 04:43 | 30.14592 | 132.77462 | 41017 ft | 559 kts | 47° |
| 2026-04-18 04:43 | 30.19499 | 132.84453 | 41019 ft | 559 kts | 47° |
| 2026-04-18 04:44 | 30.24394 | 132.91439 | 41017 ft | 559 kts | 47° |
| 2026-04-18 04:44 | 30.29288 | 132.98437 | 41020 ft | 559 kts | 47° |
| 2026-04-18 04:45 | 30.34181 | 133.05445 | 41023 ft | 559 kts | 47° |
| 2026-04-18 04:45 | 30.39063 | 133.12452 | 41025 ft | 559 kts | 47° |
| 2026-04-18 04:46 | 30.43954 | 133.19481 | 41025 ft | 559 kts | 47° |
| 2026-04-18 04:46 | 30.48833 | 133.26506 | 41026 ft | 560 kts | 47° |
| 2026-04-18 04:47 | 30.53686 | 133.33506 | 41024 ft | 560 kts | 47° |
| 2026-04-18 04:47 | 30.58558 | 133.40548 | 41027 ft | 560 kts | 47° |
| 2026-04-18 04:48 | 30.63429 | 133.47598 | 41030 ft | 560 kts | 47° |
| 2026-04-18 04:48 | 30.68297 | 133.54659 | 41031 ft | 560 kts | 47° |
| 2026-04-18 04:49 | 30.73163 | 133.61729 | 41032 ft | 560 kts | 47° |
| 2026-04-18 04:49 | 30.78035 | 133.68820 | 41031 ft | 560 kts | 47° |
| 2026-04-18 04:50 | 30.82861 | 133.75861 | 41033 ft | 561 kts | 47° |
| 2026-04-18 04:50 | 30.87720 | 133.82959 | 41039 ft | 561 kts | 47° |
| 2026-04-18 04:51 | 30.92588 | 133.90071 | 41025 ft | 561 kts | 47° |
| 2026-04-18 04:51 | 30.97452 | 133.97193 | 41033 ft | 561 kts | 47° |
| 2026-04-18 04:52 | 31.02308 | 134.04319 | 41026 ft | 561 kts | 47° |
| 2026-04-18 04:52 | 31.07158 | 134.11452 | 41033 ft | 561 kts | 47° |
| 2026-04-18 04:53 | 31.12002 | 134.18588 | 41035 ft | 561 kts | 47° |
| 2026-04-18 04:53 | 31.16835 | 134.25721 | 41037 ft | 561 kts | 47° |
| 2026-04-18 04:54 | 31.21678 | 134.32881 | 41042 ft | 561 kts | 47° |
| 2026-04-18 04:54 | 31.26489 | 134.40007 | 41042 ft | 561 kts | 47° |
| 2026-04-18 04:55 | 31.31319 | 134.47176 | 41043 ft | 561 kts | 47° |
| 2026-04-18 04:55 | 31.36152 | 134.54360 | 41041 ft | 561 kts | 47° |
| 2026-04-18 04:56 | 31.43400 | 134.65163 | 41044 ft | 561 kts | 47° |
| 2026-04-18 04:56 | 31.48219 | 134.72360 | 41047 ft | 561 kts | 47° |
| 2026-04-18 04:57 | 31.53010 | 134.79529 | 41049 ft | 562 kts | 47° |
| 2026-04-18 04:57 | 31.57829 | 134.86755 | 41051 ft | 562 kts | 47° |
| 2026-04-18 04:58 | 31.62639 | 134.93980 | 41049 ft | 562 kts | 46° |
| 2026-04-18 04:58 | 31.67452 | 135.01223 | 41048 ft | 562 kts | 46° |
| 2026-04-18 04:59 | 31.72268 | 135.08483 | 41048 ft | 562 kts | 47° |
| 2026-04-18 04:59 | 31.77354 | 135.15398 | 41048 ft | 558 kts | 41° |
| 2026-04-18 05:00 | 31.82653 | 135.22063 | 41051 ft | 558 kts | 40° |
| 2026-04-18 05:00 | 31.87885 | 135.28731 | 41051 ft | 558 kts | 41° |
| 2026-04-18 05:01 | 31.93095 | 135.35506 | 41052 ft | 559 kts | 41° |
| 2026-04-18 05:01 | 31.98293 | 135.42325 | 41048 ft | 559 kts | 41° |
| 2026-04-18 05:02 | 32.03491 | 135.49157 | 41053 ft | 560 kts | 41° |
| 2026-04-18 05:02 | 32.08689 | 135.55995 | 41062 ft | 560 kts | 41° |
| 2026-04-18 05:03 | 32.13880 | 135.62835 | 41056 ft | 560 kts | 41° |
| 2026-04-18 05:03 | 32.19072 | 135.69687 | 41056 ft | 560 kts | 41° |
| 2026-04-18 05:04 | 32.24260 | 135.76547 | 41057 ft | 560 kts | 41° |
| 2026-04-18 05:04 | 32.29412 | 135.83371 | 41057 ft | 560 kts | 41° |
| 2026-04-18 05:05 | 32.34607 | 135.90266 | 41059 ft | 561 kts | 41° |
| 2026-04-18 05:05 | 32.39793 | 135.97161 | 41056 ft | 561 kts | 41° |
| 2026-04-18 05:06 | 32.44985 | 136.04084 | 41062 ft | 561 kts | 41° |
| 2026-04-18 05:06 | 32.50175 | 136.11003 | 41061 ft | 562 kts | 41° |
| 2026-04-18 05:07 | 32.55372 | 136.17935 | 41053 ft | 562 kts | 41° |
| 2026-04-18 05:07 | 32.60531 | 136.24832 | 41063 ft | 562 kts | 41° |
| 2026-04-18 05:08 | 32.65718 | 136.31783 | 41060 ft | 563 kts | 41° |
| 2026-04-18 05:08 | 32.70907 | 136.38752 | 41062 ft | 563 kts | 41° |
| 2026-04-18 05:09 | 32.76083 | 136.45718 | 41060 ft | 563 kts | 41° |
| 2026-04-18 05:09 | 32.81266 | 136.52706 | 41063 ft | 563 kts | 41° |
| 2026-04-18 05:10 | 32.86443 | 136.59698 | 41061 ft | 563 kts | 41° |
| 2026-04-18 05:10 | 32.91617 | 136.66699 | 41063 ft | 563 kts | 41° |
| 2026-04-18 05:11 | 32.96793 | 136.73705 | 41065 ft | 563 kts | 41° |
| 2026-04-18 05:11 | 33.01967 | 136.80721 | 41066 ft | 564 kts | 41° |
| 2026-04-18 05:12 | 33.07114 | 136.87717 | 41066 ft | 564 kts | 41° |
| 2026-04-18 05:12 | 33.12285 | 136.94758 | 41068 ft | 564 kts | 41° |
| 2026-04-18 05:13 | 33.17462 | 137.01823 | 41073 ft | 565 kts | 41° |
| 2026-04-18 05:13 | 33.22622 | 137.08878 | 41072 ft | 565 kts | 41° |
| 2026-04-18 05:14 | 33.27790 | 137.15966 | 41072 ft | 565 kts | 41° |
| 2026-04-18 05:14 | 33.32083 | 137.21859 | 41072 ft | 565 kts | 41° |
| 2026-04-18 05:15 | 33.37247 | 137.28956 | 41069 ft | 565 kts | 41° |
| 2026-04-18 05:15 | 33.42403 | 137.36059 | 41072 ft | 565 kts | 41° |
| 2026-04-18 05:16 | 33.47557 | 137.43176 | 41072 ft | 565 kts | 41° |
| 2026-04-18 05:16 | 33.52706 | 137.50299 | 41073 ft | 566 kts | 41° |
| 2026-04-18 05:17 | 33.57860 | 137.57444 | 41066 ft | 566 kts | 41° |
| 2026-04-18 05:17 | 33.62527 | 137.65133 | 41070 ft | 577 kts | 53° |
| 2026-04-18 05:18 | 33.66517 | 137.73523 | 40908 ft | 579 kts | 56° |
| 2026-04-18 05:18 | 33.68445 | 137.77757 | 40385 ft | 580 kts | 56° |
| 2026-04-18 05:18 | 33.70374 | 137.82034 | 39678 ft | 583 kts | 56° |
| 2026-04-18 05:19 | 33.72303 | 137.86310 | 38963 ft | 586 kts | 56° |
| 2026-04-18 05:19 | 33.74240 | 137.90585 | 38384 ft | 586 kts | 56° |
| 2026-04-18 05:19 | 33.76192 | 137.94888 | 38098 ft | 586 kts | 56° |
| 2026-04-18 05:19 | 33.78137 | 137.99174 | 37712 ft | 586 kts | 56° |
| 2026-04-18 05:20 | 33.80091 | 138.03481 | 37343 ft | 584 kts | 56° |
| 2026-04-18 05:20 | 33.82037 | 138.07769 | 36987 ft | 583 kts | 56° |
| 2026-04-18 05:20 | 33.83985 | 138.12066 | 36204 ft | 585 kts | 56° |
| 2026-04-18 05:20 | 33.85936 | 138.16370 | 35411 ft | 587 kts | 56° |
| 2026-04-18 05:21 | 33.87888 | 138.20679 | 34659 ft | 587 kts | 56° |
| 2026-04-18 05:21 | 33.89845 | 138.25010 | 33881 ft | 587 kts | 56° |
| 2026-04-18 05:21 | 33.91793 | 138.29320 | 33047 ft | 587 kts | 56° |
| 2026-04-18 05:21 | 33.93733 | 138.33635 | 32317 ft | 583 kts | 57° |
| 2026-04-18 05:22 | 33.95639 | 138.37918 | 31709 ft | 577 kts | 58° |
| 2026-04-18 05:22 | 33.97520 | 138.42164 | 31135 ft | 572 kts | 58° |
| 2026-04-18 05:22 | 33.99387 | 138.46382 | 30551 ft | 567 kts | 58° |
| 2026-04-18 05:22 | 34.01234 | 138.50554 | 29944 ft | 562 kts | 59° |
| 2026-04-18 05:23 | 34.03063 | 138.54688 | 29338 ft | 556 kts | 59° |
| 2026-04-18 05:23 | 34.04878 | 138.58790 | 28770 ft | 549 kts | 59° |
| 2026-04-18 05:23 | 34.06643 | 138.62782 | 28232 ft | 543 kts | 59° |
| 2026-04-18 05:23 | 34.08411 | 138.66785 | 27674 ft | 538 kts | 59° |
| 2026-04-18 05:24 | 34.10154 | 138.70738 | 27132 ft | 532 kts | 59° |
| 2026-04-18 05:24 | 34.11886 | 138.74667 | 26583 ft | 526 kts | 60° |
| 2026-04-18 05:24 | 34.13596 | 138.78548 | 26051 ft | 521 kts | 60° |
| 2026-04-18 05:24 | 34.15282 | 138.82382 | 25510 ft | 516 kts | 60° |
| 2026-04-18 05:25 | 34.16962 | 138.86205 | 24971 ft | 511 kts | 60° |
| 2026-04-18 05:25 | 34.18624 | 138.89993 | 24446 ft | 506 kts | 60° |
| 2026-04-18 05:25 | 34.20257 | 138.93712 | 23896 ft | 501 kts | 60° |
| 2026-04-18 05:25 | 34.21892 | 138.97440 | 23308 ft | 496 kts | 61° |
| 2026-04-18 05:26 | 34.23496 | 139.01102 | 22752 ft | 490 kts | 61° |
| 2026-04-18 05:26 | 34.25051 | 139.04665 | 22214 ft | 483 kts | 61° |
| 2026-04-18 05:26 | 34.26320 | 139.07577 | 21782 ft | 478 kts | 61° |
| 2026-04-18 05:26 | 34.27293 | 139.09811 | 21468 ft | 474 kts | 61° |
| 2026-04-18 05:27 | 34.28707 | 139.13362 | 21134 ft | 463 kts | 65° |
| 2026-04-18 05:27 | 34.29989 | 139.16882 | 21037 ft | 450 kts | 66° |
| 2026-04-18 05:27 | 34.31216 | 139.20344 | 20422 ft | 448 kts | 66° |
| 2026-04-18 05:27 | 34.32716 | 139.23641 | 19949 ft | 444 kts | 56° |
| 2026-04-18 05:28 | 34.34402 | 139.26749 | 19714 ft | 442 kts | 55° |
| 2026-04-18 05:28 | 34.36107 | 139.29792 | 19481 ft | 440 kts | 55° |
| 2026-04-18 05:28 | 34.37834 | 139.32848 | 19248 ft | 438 kts | 55° |
| 2026-04-18 05:28 | 34.39563 | 139.35894 | 19023 ft | 437 kts | 55° |
| 2026-04-18 05:29 | 34.41279 | 139.38914 | 18752 ft | 434 kts | 55° |
| 2026-04-18 05:29 | 34.42980 | 139.41907 | 18275 ft | 430 kts | 55° |
| 2026-04-18 05:29 | 34.44668 | 139.44878 | 17677 ft | 427 kts | 55° |
| 2026-04-18 05:29 | 34.46345 | 139.47832 | 17101 ft | 423 kts | 55° |
| 2026-04-18 05:30 | 34.48006 | 139.50759 | 16539 ft | 419 kts | 55° |
| 2026-04-18 05:30 | 34.49629 | 139.53619 | 15984 ft | 415 kts | 55° |
| 2026-04-18 05:30 | 34.51278 | 139.56527 | 15408 ft | 411 kts | 55° |
| 2026-04-18 05:30 | 34.52871 | 139.59340 | 14880 ft | 407 kts | 55° |
| 2026-04-18 05:31 | 34.54468 | 139.62160 | 14324 ft | 404 kts | 56° |
| 2026-04-18 05:31 | 34.56042 | 139.64941 | 13881 ft | 397 kts | 56° |
| 2026-04-18 05:31 | 34.57572 | 139.67645 | 13741 ft | 379 kts | 55° |
| 2026-04-18 05:31 | 34.59036 | 139.70231 | 13592 ft | 364 kts | 56° |
| 2026-04-18 05:32 | 34.60442 | 139.72723 | 13430 ft | 351 kts | 56° |
| 2026-04-18 05:32 | 34.61797 | 139.75131 | 13275 ft | 338 kts | 56° |
| 2026-04-18 05:32 | 34.63083 | 139.77413 | 13123 ft | 315 kts | 56° |
| 2026-04-18 05:32 | 34.64288 | 139.79552 | 12941 ft | 301 kts | 56° |
| 2026-04-18 05:33 | 34.65464 | 139.81643 | 12592 ft | 298 kts | 56° |
| 2026-04-18 05:33 | 34.66619 | 139.83692 | 12284 ft | 297 kts | 56° |
| 2026-04-18 05:33 | 34.68019 | 139.85506 | 12049 ft | 294 kts | 33° |
| 2026-04-18 05:33 | 34.69872 | 139.86478 | 12022 ft | 291 kts | 14° |
| 2026-04-18 05:34 | 34.71834 | 139.87123 | 12010 ft | 291 kts | 13° |
| 2026-04-18 05:34 | 34.73783 | 139.87739 | 12014 ft | 291 kts | 13° |
| 2026-04-18 05:34 | 34.75707 | 139.88562 | 12015 ft | 293 kts | 21° |
| 2026-04-18 05:34 | 34.77586 | 139.89516 | 12015 ft | 293 kts | 21° |
| 2026-04-18 05:35 | 34.79466 | 139.90500 | 11940 ft | 294 kts | 22° |
| 2026-04-18 05:35 | 34.81333 | 139.91489 | 11703 ft | 292 kts | 22° |
| 2026-04-18 05:35 | 34.83197 | 139.92487 | 11465 ft | 292 kts | 22° |
| 2026-04-18 05:35 | 34.85054 | 139.93483 | 11221 ft | 291 kts | 22° |
| 2026-04-18 05:36 | 34.86895 | 139.94479 | 10979 ft | 289 kts | 22° |
| 2026-04-18 05:36 | 34.88732 | 139.95473 | 10740 ft | 288 kts | 22° |
| 2026-04-18 05:36 | 34.90556 | 139.96459 | 10504 ft | 287 kts | 22° |
| 2026-04-18 05:36 | 34.92381 | 139.97449 | 10262 ft | 286 kts | 23° |
| 2026-04-18 05:37 | 34.94190 | 139.98432 | 10037 ft | 285 kts | 23° |
| 2026-04-18 05:37 | 34.96013 | 139.99363 | 9908 ft | 284 kts | 17° |
| 2026-04-18 05:37 | 34.97887 | 140.00109 | 9726 ft | 283 kts | 16° |
| 2026-04-18 05:37 | 34.99760 | 140.00823 | 9470 ft | 281 kts | 16° |
| 2026-04-18 05:38 | 35.01629 | 140.01527 | 9206 ft | 280 kts | 15° |
| 2026-04-18 05:38 | 35.03467 | 140.02203 | 8959 ft | 278 kts | 15° |
| 2026-04-18 05:38 | 35.05321 | 140.02878 | 8702 ft | 277 kts | 15° |
| 2026-04-18 05:38 | 35.07158 | 140.03554 | 8459 ft | 277 kts | 15° |
| 2026-04-18 05:39 | 35.09000 | 140.04228 | 8202 ft | 275 kts | 15° |
| 2026-04-18 05:39 | 35.10834 | 140.04896 | 8034 ft | 274 kts | 15° |
| 2026-04-18 05:39 | 35.12661 | 140.05560 | 7999 ft | 274 kts | 14° |
| 2026-04-18 05:39 | 35.14483 | 140.06223 | 8001 ft | 273 kts | 14° |
| 2026-04-18 05:40 | 35.16302 | 140.06888 | 7999 ft | 273 kts | 14° |
| 2026-04-18 05:40 | 35.18119 | 140.07553 | 8002 ft | 273 kts | 14° |
| 2026-04-18 05:40 | 35.19935 | 140.08216 | 7998 ft | 272 kts | 14° |
| 2026-04-18 05:40 | 35.21758 | 140.08880 | 8004 ft | 273 kts | 14° |
| 2026-04-18 05:41 | 35.23580 | 140.09547 | 8000 ft | 273 kts | 14° |
| 2026-04-18 05:41 | 35.25369 | 140.10200 | 7999 ft | 272 kts | 14° |
| 2026-04-18 05:41 | 35.27182 | 140.10864 | 7998 ft | 272 kts | 14° |
| 2026-04-18 05:41 | 35.28992 | 140.11526 | 7913 ft | 272 kts | 14° |
| 2026-04-18 05:42 | 35.30802 | 140.12187 | 7789 ft | 272 kts | 14° |
| 2026-04-18 05:42 | 35.32575 | 140.12839 | 7678 ft | 271 kts | 14° |
| 2026-04-18 05:42 | 35.34394 | 140.13508 | 7551 ft | 271 kts | 14° |
| 2026-04-18 05:42 | 35.36200 | 140.14168 | 7384 ft | 270 kts | 14° |
| 2026-04-18 05:43 | 35.37999 | 140.14826 | 7133 ft | 268 kts | 14° |
| 2026-04-18 05:43 | 35.39779 | 140.15481 | 7012 ft | 267 kts | 14° |
| 2026-04-18 05:43 | 35.41554 | 140.16135 | 6993 ft | 267 kts | 14° |
| 2026-04-18 05:43 | 35.43325 | 140.16787 | 6996 ft | 265 kts | 14° |
| 2026-04-18 05:44 | 35.45089 | 140.17434 | 6995 ft | 265 kts | 14° |
| 2026-04-18 05:44 | 35.46860 | 140.18084 | 6993 ft | 265 kts | 14° |
| 2026-04-18 05:44 | 35.48616 | 140.18731 | 6991 ft | 265 kts | 14° |
| 2026-04-18 05:44 | 35.50379 | 140.19374 | 6991 ft | 263 kts | 14° |
| 2026-04-18 05:45 | 35.52136 | 140.19985 | 6989 ft | 263 kts | 10° |
| 2026-04-18 05:45 | 35.53919 | 140.20117 | 6968 ft | 250 kts | 349° |
| 2026-04-18 05:45 | 35.55553 | 140.19675 | 6774 ft | 233 kts | 341° |
| 2026-04-18 05:45 | 35.57101 | 140.19106 | 6499 ft | 232 kts | 339° |
| 2026-04-18 05:46 | 35.58487 | 140.18242 | 6287 ft | 215 kts | 317° |
| 2026-04-18 05:46 | 35.59393 | 140.16886 | 6252 ft | 202 kts | 299° |
| 2026-04-18 05:46 | 35.60052 | 140.15398 | 6194 ft | 188 kts | 291° |
| 2026-04-18 05:46 | 35.60385 | 140.13885 | 5997 ft | 187 kts | 277° |
| 2026-04-18 05:47 | 35.60475 | 140.12303 | 5720 ft | 186 kts | 270° |
| 2026-04-18 05:47 | 35.60484 | 140.10692 | 5485 ft | 188 kts | 269° |
| 2026-04-18 05:47 | 35.60472 | 140.09094 | 5250 ft | 187 kts | 268° |
| 2026-04-18 05:47 | 35.60459 | 140.07496 | 5023 ft | 187 kts | 268° |
| 2026-04-18 05:48 | 35.60455 | 140.05896 | 4778 ft | 187 kts | 268° |
| 2026-04-18 05:48 | 35.60457 | 140.04300 | 4513 ft | 187 kts | 268° |
| 2026-04-18 05:48 | 35.60460 | 140.02696 | 4240 ft | 188 kts | 268° |
| 2026-04-18 05:48 | 35.60461 | 140.01096 | 3978 ft | 187 kts | 268° |
| 2026-04-18 05:49 | 35.60460 | 139.99497 | 3714 ft | 188 kts | 267° |
| 2026-04-18 05:49 | 35.60457 | 139.97889 | 3446 ft | 187 kts | 267° |
| 2026-04-18 05:49 | 35.60447 | 139.96289 | 3188 ft | 185 kts | 266° |
| 2026-04-18 05:49 | 35.60440 | 139.94743 | 2922 ft | 174 kts | 266° |
| 2026-04-18 05:50 | 35.60435 | 139.93303 | 2710 ft | 164 kts | 266° |
| 2026-04-18 05:50 | 35.60427 | 139.91900 | 2489 ft | 164 kts | 265° |
| 2026-04-18 05:50 | 35.60419 | 139.90496 | 2252 ft | 165 kts | 266° |
| 2026-04-18 05:50 | 35.60413 | 139.89100 | 2019 ft | 163 kts | 265° |
| 2026-04-18 05:51 | 35.60407 | 139.87702 | 1791 ft | 164 kts | 266° |
| 2026-04-18 05:51 | 35.60402 | 139.86331 | 1565 ft | 155 kts | 266° |
| 2026-04-18 05:51 | 35.60396 | 139.85073 | 1353 ft | 144 kts | 265° |
| 2026-04-18 05:51 | 35.60391 | 139.83885 | 1157 ft | 135 kts | 265° |
| 2026-04-18 05:52 | 35.60390 | 139.82739 | 1019 ft | 133 kts | 266° |
| 2026-04-18 05:52 | 35.60260 | 139.81614 | 928 ft | 133 kts | 251° |
| 2026-04-18 05:52 | 35.59854 | 139.80618 | 784 ft | 130 kts | 227° |
| 2026-04-18 05:52 | 35.59192 | 139.79843 | 680 ft | 133 kts | 214° |
| 2026-04-18 05:53 | 35.58447 | 139.79176 | 466 ft | 132 kts | 212° |
| 2026-04-18 05:53 | 35.57707 | 139.78523 | 324 ft | 130 kts | 210° |
| 2026-04-18 05:53 | 35.56967 | 139.77893 | 140 ft | 127 kts | 208° |
| 2026-04-18 05:53 | 35.56256 | 139.77286 | 40 ft | 117 kts | 217° |
| 2026-04-18 05:54 | 35.55732 | 139.76840 | 33 ft | 66 kts | 214° |
| 2026-04-18 05:54 | 35.55473 | 139.76620 | 32 ft | 35 kts | 215° |
| 2026-04-18 05:54 | 35.55295 | 139.76495 | 31 ft | 23 kts | 199° |
| 2026-04-18 05:54 | 35.55179 | 139.76461 | 31 ft | 12 kts | 191° |
| 2026-04-18 05:55 | 35.55102 | 139.76455 | 31 ft | 11 kts | 163° |
| 2026-04-18 05:55 | 35.55071 | 139.76524 | 31 ft | 10 kts | 84° |
| 2026-04-18 05:55 | 35.55105 | 139.76612 | 31 ft | 13 kts | 61° |
| 2026-04-18 05:55 | 35.55157 | 139.76721 | 30 ft | 17 kts | 59° |
| 2026-04-18 05:56 | 35.55221 | 139.76856 | 28 ft | 20 kts | 60° |
| 2026-04-18 05:56 | 35.55280 | 139.76981 | 28 ft | 14 kts | 59° |
| 2026-04-18 05:56 | 35.55323 | 139.77073 | 28 ft | 9 kts | 62° |
| 2026-04-18 05:56 | 35.55313 | 139.77137 | 27 ft | 9 kts | 141° |
| 2026-04-18 05:57 | 35.55183 | 139.77231 | 28 ft | 13 kts | 150° |
| 2026-04-18 05:57 | 35.55086 | 139.77300 | 31 ft | 18 kts | 150° |
| 2026-04-18 05:57 | 35.54976 | 139.77378 | 27 ft | 18 kts | 150° |
| 2026-04-18 05:58 | 35.54871 | 139.77452 | 32 ft | 16 kts | 150° |
| 2026-04-18 05:58 | 35.54779 | 139.77517 | 26 ft | 11 kts | 150° |
| 2026-04-18 05:58 | 35.54730 | 139.77569 | 32 ft | 7 kts | 111° |
| 2026-04-18 05:58 | 35.54740 | 139.77621 | 29 ft | 7 kts | 63° |
| 2026-04-18 05:59 | 35.54772 | 139.77687 | 31 ft | 11 kts | 59° |
| 2026-04-18 05:59 | 35.54810 | 139.77768 | 27 ft | 12 kts | 59° |
| 2026-04-18 05:59 | 35.54856 | 139.77865 | 31 ft | 12 kts | 59° |
| 2026-04-18 05:59 | 35.54893 | 139.77941 | 28 ft | 9 kts | 59° |
| 2026-04-18 06:00 | 35.54922 | 139.78006 | 28 ft | 8 kts | 68° |
| 2026-04-18 06:00 | 35.54921 | 139.78067 | 28 ft | 7 kts | 101° |
| 2026-04-18 06:00 | 35.54909 | 139.78130 | 28 ft | 7 kts | 103° |
| 2026-04-18 06:00 | 35.54901 | 139.78173 | 29 ft | 3 kts | 102° |
| 2026-04-18 06:01 | 35.54897 | 139.78194 | 29 ft | 2 kts | 102° |
| 2026-04-18 06:01 | 35.54896 | 139.78199 | 29 ft | 0 kts | 102° |
| 2026-04-18 06:01 | 35.54894 | 139.78211 | 29 ft | 3 kts | 102° |
| 2026-04-18 06:01 | 35.54890 | 139.78236 | 29 ft | 3 kts | 102° |
| 2026-04-18 06:02 | 35.54889 | 139.78238 | 29 ft | 0 kts | 102° |